createdAt,value
2019-04-22T00:01:13.678Z,12.80
2019-04-22T00:03:47.432Z,12.80
2019-04-22T00:06:32.797Z,12.70
2019-04-22T00:09:04.043Z,12.80
2019-04-22T00:11:36.969Z,12.90
2019-04-22T00:14:00.722Z,12.80
2019-04-22T00:16:38.823Z,12.90
2019-04-22T00:21:38.410Z,12.70
2019-04-22T00:24:04.471Z,12.70
2019-04-22T00:26:37.560Z,12.40
2019-04-22T00:29:36.055Z,12.20
2019-04-22T00:31:51.396Z,12.10
2019-04-22T00:34:16.666Z,12.10
2019-04-22T00:36:52.614Z,12.10
2019-04-22T00:39:33.705Z,12.00
2019-04-22T00:41:52.070Z,11.80
2019-04-22T00:44:25.658Z,12.00
2019-04-22T00:46:52.522Z,12.00
2019-04-22T00:50:06.720Z,12.00
2019-04-22T00:52:01.507Z,12.00
2019-04-22T00:54:26.083Z,11.90
2019-04-22T00:56:59.152Z,11.90
2019-04-22T00:59:23.762Z,12.00
2019-04-22T01:01:53.998Z,12.10
2019-04-22T01:04:31.497Z,12.00
2019-04-22T01:06:51.305Z,11.90
2019-04-22T01:09:25.027Z,12.10
2019-04-22T01:11:53.716Z,12.00
2019-04-22T01:14:21.660Z,12.10
2019-04-22T01:16:57.813Z,12.00
2019-04-22T01:19:32.367Z,11.90
2019-04-22T01:21:58.279Z,12.10
2019-04-22T01:24:31.090Z,12.10
2019-04-22T01:26:53.722Z,12.10
2019-04-22T01:29:20.163Z,12.00
2019-04-22T01:31:38.816Z,11.90
2019-04-22T01:34:23.208Z,11.90
2019-04-22T01:36:57.645Z,11.90
2019-04-22T01:39:31.845Z,11.70
2019-04-22T01:47:07.508Z,11.60
2019-04-22T01:49:33.425Z,11.60
2019-04-22T01:52:07.769Z,11.60
2019-04-22T01:54:45.447Z,11.70
2019-04-22T01:57:03.676Z,11.70
2019-04-22T01:59:31.693Z,11.80
2019-04-22T02:02:14.498Z,11.90
2019-04-22T02:04:51.697Z,12.10
2019-04-22T02:07:09.333Z,12.00
2019-04-22T02:12:17.303Z,12.10
2019-04-22T02:14:44.330Z,12.30
2019-04-22T02:17:17.692Z,12.30
2019-04-22T02:19:46.772Z,12.20
2019-04-22T02:22:07.093Z,12.30
2019-04-22T02:24:45.165Z,12.10
2019-04-22T02:27:17.695Z,12.00
2019-04-22T02:29:44.565Z,12.10
2019-04-22T02:35:02.194Z,11.90
2019-04-22T02:39:47.123Z,11.70
2019-04-22T02:44:48.495Z,11.50
2019-04-22T02:47:20.843Z,11.40
2019-04-22T02:49:47.414Z,11.30
2019-04-22T02:57:35.567Z,11.20
2019-04-22T03:02:19.001Z,10.70
2019-04-22T03:04:46.539Z,10.70
2019-04-22T03:07:14.796Z,10.40
2019-04-22T03:09:47.767Z,10.50
2019-04-22T03:14:51.679Z,10.50
2019-04-22T03:17:20.487Z,10.40
2019-04-22T03:25:12.454Z,10.60
2019-04-22T03:27:22.027Z,10.50
2019-04-22T03:33:09.184Z,10.50
2019-04-22T03:35:41.686Z,10.40
2019-04-22T03:42:51.952Z,10.20
2019-04-22T03:47:41.235Z,10.00
2019-04-22T03:52:38.790Z,10.10
2019-04-22T04:02:47.457Z,9.90
2019-04-22T04:05:22.291Z,9.90
2019-04-22T04:07:55.822Z,9.80
2019-04-22T04:23:07.840Z,9.80
2019-04-22T04:28:11.290Z,9.90
2019-04-22T04:30:21.287Z,9.90
2019-04-22T04:32:52.480Z,9.80
2019-04-22T04:35:35.035Z,9.90
2019-04-22T04:40:28.915Z,9.90
2019-04-22T04:42:58.327Z,9.80
2019-04-22T04:45:34.116Z,9.90
2019-04-22T04:55:26.225Z,10.00
2019-04-22T04:58:13.845Z,10.00
2019-04-22T05:02:56.269Z,10.00
2019-04-22T05:05:28.841Z,10.00
2019-04-22T05:22:44.519Z,10.10
2019-04-22T05:25:19.525Z,10.00
2019-04-22T05:27:50.930Z,10.00
2019-04-22T05:32:52.902Z,10.40
2019-04-22T05:35:20.582Z,10.40
2019-04-22T05:40:24.366Z,10.50
2019-04-22T05:42:51.479Z,10.60
2019-04-22T05:45:23.022Z,10.70
2019-04-22T05:47:52.256Z,10.80
2019-04-22T05:50:19.028Z,10.80
2019-04-22T05:52:54.185Z,10.90
2019-04-22T05:57:51.160Z,11.20
2019-04-22T06:00:30.947Z,11.40
2019-04-22T06:05:29.526Z,11.70
2019-04-22T06:07:59.169Z,11.90
2019-04-22T06:10:33.403Z,11.90
2019-04-22T06:12:59.267Z,12.10
2019-04-22T06:15:32.790Z,12.20
2019-04-22T06:18:12.696Z,12.50
2019-04-22T06:20:32.751Z,12.60
2019-04-22T06:23:04.096Z,12.90
2019-04-22T06:25:51.415Z,13.00
2019-04-22T06:28:17.197Z,13.20
2019-04-22T06:30:38.129Z,13.40
2019-04-22T06:33:13.280Z,13.50
2019-04-22T06:38:28.938Z,13.90
2019-04-22T06:40:41.806Z,14.10
2019-04-22T06:43:14.111Z,14.40
2019-04-22T06:45:35.098Z,14.60
2019-04-22T06:48:17.781Z,14.80
2019-04-22T06:50:46.484Z,14.90
2019-04-22T06:53:14.565Z,15.20
2019-04-22T06:55:41.418Z,15.40
2019-04-22T06:58:13.471Z,15.60
2019-04-22T07:00:42.909Z,15.80
2019-04-22T07:03:28.694Z,16.00
2019-04-22T07:05:41.224Z,16.00
2019-04-22T07:08:34.707Z,16.00
2019-04-22T07:13:16.270Z,16.20
2019-04-22T07:18:19.828Z,16.70
2019-04-22T07:20:47.275Z,17.00
2019-04-22T07:23:25.776Z,17.20
2019-04-22T07:28:15.610Z,17.60
2019-04-22T07:30:44.816Z,17.60
2019-04-22T07:33:19.845Z,17.50
2019-04-22T07:36:23.491Z,17.60
2019-04-22T07:38:25.675Z,17.80
2019-04-22T07:45:49.254Z,18.40
2019-04-22T07:48:26.190Z,18.60
2019-04-22T07:50:59.941Z,18.70
2019-04-22T07:53:19.611Z,18.80
2019-04-22T07:55:45.360Z,18.80
2019-04-22T08:00:43.812Z,18.60
2019-04-22T08:03:47.075Z,18.80
2019-04-22T08:05:58.742Z,19.10
2019-04-22T08:13:25.215Z,19.40
2019-04-22T08:15:55.408Z,19.70
2019-04-22T08:20:56.729Z,20.00
2019-04-22T08:23:24.542Z,20.00
2019-04-22T08:26:04.866Z,19.90
2019-04-22T08:28:26.168Z,20.00
2019-04-22T08:30:55.307Z,19.90
2019-04-22T08:33:29.306Z,20.10
2019-04-22T08:36:06.116Z,20.10
2019-04-22T08:38:37.699Z,20.30
2019-04-22T08:41:28.454Z,20.60
2019-04-22T08:43:59.359Z,20.80
2019-04-22T08:46:30.267Z,20.90
2019-04-22T08:56:29.831Z,21.10
2019-04-22T08:58:57.396Z,21.30
2019-04-22T09:01:22.739Z,21.40
2019-04-22T09:03:52.348Z,21.50
2019-04-22T09:06:39.978Z,21.70
2019-04-22T09:08:55.155Z,21.70
2019-04-22T09:11:27.043Z,21.90
2019-04-22T09:13:59.844Z,21.90
2019-04-22T09:18:56.083Z,21.90
2019-04-22T09:21:31.656Z,22.10
2019-04-22T09:23:58.689Z,22.40
2019-04-22T09:26:30.290Z,22.50
2019-04-22T09:29:03.253Z,22.80
2019-04-22T09:31:23.797Z,22.20
2019-04-22T09:33:53.439Z,22.30
2019-04-22T09:36:29.527Z,22.50
2019-04-22T09:41:27.151Z,22.60
2019-04-22T09:43:57.056Z,22.60
2019-04-22T09:46:28.297Z,22.60
2019-04-22T09:48:59.040Z,22.70
2019-04-22T09:51:26.859Z,23.00
2019-04-22T09:54:00.795Z,23.00
2019-04-22T09:56:31.783Z,23.10
2019-04-22T09:58:55.737Z,23.40
2019-04-22T10:01:29.506Z,23.60
2019-04-22T10:06:35.550Z,23.60
2019-04-22T10:09:26.958Z,23.70
2019-04-22T10:11:34.040Z,23.70
2019-04-22T10:14:01.067Z,23.90
2019-04-22T10:16:41.910Z,24.30
2019-04-22T10:21:40.036Z,24.30
2019-04-22T10:24:04.759Z,24.50
2019-04-22T10:26:35.161Z,24.50
2019-04-22T10:29:09.177Z,24.50
2019-04-22T10:33:53.231Z,23.80
2019-04-22T10:36:07.875Z,23.80
2019-04-22T10:38:36.788Z,23.90
2019-04-22T10:41:05.626Z,24.30
2019-04-22T10:43:34.927Z,24.40
2019-04-22T10:46:04.153Z,24.40
2019-04-22T10:48:32.850Z,24.30
2019-04-22T10:51:02.755Z,24.60
2019-04-22T10:53:31.339Z,24.50
2019-04-22T10:56:00.986Z,24.70
2019-04-22T10:58:30.758Z,24.80
2019-04-22T11:01:00.126Z,24.40
2019-04-22T11:03:28.946Z,24.30
2019-04-22T11:05:59.109Z,24.40
2019-04-22T11:08:33.934Z,24.00
2019-04-22T11:11:12.281Z,24.20
2019-04-22T11:13:28.474Z,24.30
2019-04-22T11:15:58.280Z,24.60
2019-04-22T11:18:27.424Z,24.90
2019-04-22T11:20:56.102Z,25.20
2019-04-22T11:23:24.733Z,24.90
2019-04-22T11:25:54.076Z,25.00
2019-04-22T11:28:23.346Z,25.30
2019-04-22T11:30:52.381Z,25.70
2019-04-22T11:33:20.957Z,25.90
2019-04-22T11:35:50.104Z,26.00
2019-04-22T11:38:19.129Z,25.70
2019-04-22T11:40:52.472Z,25.30
2019-04-22T11:43:17.854Z,24.90
2019-04-22T11:45:47.095Z,25.10
2019-04-22T11:48:17.475Z,25.50
2019-04-22T11:50:46.228Z,25.60
2019-04-22T11:53:14.844Z,25.10
2019-04-22T11:55:44.739Z,25.20
2019-04-22T11:58:14.951Z,25.10
2019-04-22T12:00:45.129Z,25.30
2019-04-22T12:03:14.766Z,25.30
2019-04-22T12:05:43.936Z,25.40
2019-04-22T12:08:13.212Z,25.10
2019-04-22T12:10:49.457Z,25.20
2019-04-22T12:13:12.325Z,25.30
2019-04-22T12:15:41.001Z,25.30
2019-04-22T12:18:11.179Z,25.30
2019-04-22T12:20:41.412Z,25.30
2019-04-22T12:23:11.165Z,25.40
2019-04-22T12:25:48.644Z,25.30
2019-04-22T12:28:11.135Z,25.20
2019-04-22T12:30:39.803Z,25.30
2019-04-22T12:33:10.936Z,25.40
2019-04-22T12:35:38.951Z,25.60
2019-04-22T12:38:10.308Z,25.40
2019-04-22T12:40:46.657Z,25.70
2019-04-22T12:43:10.166Z,25.60
2019-04-22T12:45:38.537Z,25.50
2019-04-22T12:48:08.471Z,25.70
2019-04-22T12:50:41.808Z,26.20
2019-04-22T12:53:11.366Z,26.10
2019-04-22T12:55:39.690Z,26.10
2019-04-22T12:58:09.664Z,26.10
2019-04-22T13:00:38.553Z,26.00
2019-04-22T13:03:07.394Z,26.10
2019-04-22T13:05:37.452Z,26.10
2019-04-22T13:08:07.602Z,26.10
2019-04-22T13:10:48.680Z,26.10
2019-04-22T13:13:07.146Z,26.20
2019-04-22T13:15:36.914Z,26.20
2019-04-22T13:18:14.819Z,26.30
2019-04-22T13:20:36.502Z,26.20
2019-04-22T13:23:05.227Z,26.00
2019-04-22T13:25:34.707Z,26.20
2019-04-22T13:28:04.990Z,26.20
2019-04-22T13:30:34.633Z,25.90
2019-04-22T13:33:03.281Z,25.90
2019-04-22T13:35:31.990Z,25.80
2019-04-22T13:38:01.204Z,26.00
2019-04-22T13:40:30.788Z,26.20
2019-04-22T13:43:00.685Z,26.00
2019-04-22T13:45:29.804Z,26.20
2019-04-22T13:48:16.765Z,26.20
2019-04-22T13:51:01.654Z,26.40
2019-04-22T13:58:15.741Z,26.80
2019-04-22T14:00:34.637Z,26.50
2019-04-22T14:03:22.514Z,26.20
2019-04-22T14:06:00.687Z,26.20
2019-04-22T14:08:31.215Z,26.20
2019-04-22T14:11:13.191Z,26.20
2019-04-22T14:13:30.153Z,26.40
2019-04-22T14:16:01.245Z,26.50
2019-04-22T14:18:30.775Z,26.40
2019-04-22T14:21:00.808Z,26.80
2019-04-22T14:23:30.873Z,26.70
2019-04-22T14:26:01.191Z,26.80
2019-04-22T14:28:31.274Z,26.80
2019-04-22T14:31:02.210Z,26.50
2019-04-22T14:33:32.071Z,26.70
2019-04-22T14:36:00.733Z,26.40
2019-04-22T14:38:32.301Z,26.60
2019-04-22T14:41:00.845Z,26.60
2019-04-22T14:44:01.741Z,26.80
2019-04-22T14:46:31.592Z,27.00
2019-04-22T14:48:50.199Z,27.00
2019-04-22T14:51:16.747Z,26.90
2019-04-22T14:53:50.218Z,27.00
2019-04-22T14:56:02.317Z,27.00
2019-04-22T14:58:31.210Z,26.80
2019-04-22T15:01:01.254Z,26.70
2019-04-22T15:03:31.443Z,26.40
2019-04-22T15:06:00.272Z,26.40
2019-04-22T15:08:29.006Z,26.50
2019-04-22T15:10:58.225Z,26.50
2019-04-22T15:13:27.363Z,26.40
2019-04-22T15:16:03.036Z,26.20
2019-04-22T15:18:35.744Z,26.40
2019-04-22T15:21:06.939Z,26.60
2019-04-22T15:23:35.723Z,26.50
2019-04-22T15:26:04.639Z,26.40
2019-04-22T15:28:33.467Z,26.60
2019-04-22T15:31:03.473Z,26.60
2019-04-22T15:33:33.118Z,26.80
2019-04-22T15:36:01.807Z,27.00
2019-04-22T15:38:32.251Z,27.10
2019-04-22T15:41:01.043Z,26.60
2019-04-22T15:43:31.667Z,26.40
2019-04-22T15:46:02.278Z,26.30
2019-04-22T15:48:32.443Z,25.80
2019-04-22T15:51:00.556Z,25.60
2019-04-22T15:53:29.645Z,25.50
2019-04-22T15:55:58.802Z,25.30
2019-04-22T15:58:28.174Z,25.20
2019-04-22T16:01:08.761Z,25.10
2019-04-22T16:03:26.996Z,24.90
2019-04-22T16:05:55.535Z,24.90
2019-04-22T16:08:24.742Z,24.90
2019-04-22T16:10:53.710Z,25.00
2019-04-22T16:13:26.553Z,25.00
2019-04-22T16:15:54.528Z,24.90
2019-04-22T16:18:24.355Z,25.00
2019-04-22T16:20:54.302Z,25.00
2019-04-22T16:23:42.734Z,25.00
2019-04-22T16:26:30.483Z,25.00
2019-04-22T16:28:59.614Z,24.90
2019-04-22T16:31:29.522Z,24.90
2019-04-22T16:33:58.449Z,24.90
2019-04-22T16:36:28.711Z,24.70
2019-04-22T16:38:57.566Z,24.60
2019-04-22T16:41:26.490Z,24.60
2019-04-22T16:43:56.325Z,24.70
2019-04-22T16:46:25.598Z,24.60
2019-04-22T16:48:54.240Z,24.50
2019-04-22T16:51:24.448Z,24.50
2019-04-22T16:53:53.953Z,24.40
2019-04-22T16:56:22.607Z,24.40
2019-04-22T16:58:52.581Z,24.30
2019-04-22T17:01:38.796Z,24.20
2019-04-22T17:04:12.341Z,24.10
2019-04-22T17:06:45.597Z,24.00
2019-04-22T17:09:17.509Z,23.90
2019-04-22T17:11:45.706Z,23.90
2019-04-22T17:14:19.037Z,23.90
2019-04-22T17:16:46.284Z,23.80
2019-04-22T17:19:15.310Z,23.80
2019-04-22T17:21:44.107Z,23.70
2019-04-22T17:24:13.994Z,23.60
2019-04-22T17:26:42.601Z,23.50
2019-04-22T17:29:12.499Z,23.50
2019-04-22T17:31:50.268Z,23.30
2019-04-22T17:34:11.654Z,23.20
2019-04-22T17:36:40.676Z,23.20
2019-04-22T17:39:22.782Z,23.20
2019-04-22T17:41:59.653Z,23.20
2019-04-22T17:44:41.403Z,23.00
2019-04-22T17:47:05.273Z,23.00
2019-04-22T17:49:50.288Z,23.00
2019-04-22T17:52:21.577Z,22.90
2019-04-22T17:54:50.007Z,22.80
2019-04-22T17:57:22.474Z,22.60
2019-04-22T17:59:55.188Z,22.40
2019-04-22T18:02:22.536Z,22.20
2019-04-22T18:04:40.100Z,22.00
2019-04-22T18:07:29.631Z,21.80
2019-04-22T18:10:20.707Z,21.60
2019-04-22T18:12:33.808Z,21.40
2019-04-22T18:14:59.130Z,21.20
2019-04-22T18:17:34.032Z,21.10
2019-04-22T18:19:52.230Z,21.00
2019-04-22T18:22:19.939Z,20.90
2019-04-22T18:24:51.677Z,20.70
2019-04-22T18:27:43.478Z,20.60
2019-04-22T18:29:51.567Z,20.50
2019-04-22T18:32:17.642Z,20.40
2019-04-22T18:34:48.015Z,20.30
2019-04-22T18:37:19.877Z,20.10
2019-04-22T18:39:58.986Z,20.10
2019-04-22T18:42:23.829Z,20.00
2019-04-22T18:45:06.551Z,19.90
2019-04-22T18:47:25.266Z,19.70
2019-04-22T18:49:55.444Z,19.50
2019-04-22T18:52:42.723Z,19.40
2019-04-22T18:55:08.652Z,19.30
2019-04-22T18:57:44.071Z,19.20
2019-04-22T19:00:21.552Z,19.30
2019-04-22T19:02:59.036Z,19.10
2019-04-22T19:05:40.093Z,19.00
2019-04-22T19:13:49.118Z,18.90
2019-04-22T19:15:53.862Z,18.80
2019-04-22T19:18:25.707Z,18.70
2019-04-22T19:20:53.478Z,18.60
2019-04-22T19:23:20.869Z,18.50
2019-04-22T19:25:42.096Z,18.40
2019-04-22T19:28:23.863Z,18.30
2019-04-22T19:30:59.448Z,18.30
2019-04-22T19:33:23.941Z,18.20
2019-04-22T19:35:44.450Z,18.20
2019-04-22T19:38:12.216Z,18.10
2019-04-22T19:41:00.906Z,18.10
2019-04-22T19:43:22.873Z,18.10
2019-04-22T19:45:55.409Z,18.00
2019-04-22T19:48:33.011Z,18.00
2019-04-22T19:51:00.124Z,17.90
2019-04-22T19:53:29.688Z,17.70
2019-04-22T19:55:52.421Z,17.70
2019-04-22T19:58:20.225Z,17.50
2019-04-22T20:00:54.668Z,17.40
2019-04-22T20:03:42.811Z,17.50
2019-04-22T20:06:15.558Z,17.40
2019-04-22T20:08:48.826Z,17.50
2019-04-22T20:11:21.746Z,17.60
2019-04-22T20:13:47.945Z,17.60
2019-04-22T20:16:06.140Z,17.60
2019-04-22T20:18:52.373Z,17.40
2019-04-22T20:21:25.144Z,17.30
2019-04-22T20:23:39.556Z,16.90
2019-04-22T20:26:12.495Z,16.80
2019-04-22T20:28:46.621Z,16.60
2019-04-22T20:31:22.095Z,16.40
2019-04-22T20:33:50.268Z,16.50
2019-04-22T20:36:39.430Z,16.30
2019-04-22T20:38:48.180Z,16.20
2019-04-22T20:41:17.066Z,16.10
2019-04-22T20:43:54.552Z,15.80
2019-04-22T20:46:20.731Z,16.10
2019-04-22T20:48:56.964Z,16.30
2019-04-22T20:51:29.653Z,16.40
2019-04-22T20:53:56.762Z,16.40
2019-04-22T20:56:18.813Z,16.50
2019-04-22T20:58:51.780Z,16.60
2019-04-22T21:01:22.810Z,16.70
2019-04-22T21:03:41.889Z,16.70
2019-04-22T21:06:23.952Z,16.70
2019-04-22T21:08:54.635Z,16.70
2019-04-22T21:11:19.611Z,16.70
2019-04-22T21:13:54.298Z,16.70
2019-04-22T21:16:26.809Z,16.70
2019-04-22T21:18:46.085Z,16.70
2019-04-22T21:21:26.427Z,16.60
2019-04-22T21:23:47.656Z,16.60
2019-04-22T21:26:24.031Z,16.60
2019-04-22T21:28:53.803Z,16.50
2019-04-22T21:31:29.568Z,16.50
2019-04-22T21:33:51.620Z,16.50
2019-04-22T21:36:30.219Z,16.50
2019-04-22T21:38:53.075Z,16.40
2019-04-22T21:41:24.984Z,16.30
2019-04-22T21:44:01.012Z,16.30
2019-04-22T21:46:32.488Z,16.20
2019-04-22T21:49:00.141Z,16.10
2019-04-22T21:51:33.114Z,16.00
2019-04-22T21:54:06.783Z,16.00
2019-04-22T21:56:42.361Z,16.00
2019-04-22T21:59:01.927Z,16.00
2019-04-22T22:01:44.716Z,15.90
2019-04-22T22:04:04.781Z,15.80
2019-04-22T22:06:28.376Z,15.80
2019-04-22T22:09:13.437Z,15.70
2019-04-22T22:11:35.717Z,15.70
2019-04-22T22:14:07.804Z,15.70
2019-04-22T22:16:32.102Z,15.60
2019-04-22T22:19:11.050Z,15.60
2019-04-22T22:21:47.488Z,15.60
2019-04-22T22:24:18.172Z,15.60
2019-04-22T22:26:44.529Z,15.60
2019-04-22T22:29:24.653Z,15.60
2019-04-22T22:31:51.700Z,15.50
2019-04-22T22:34:15.243Z,15.50
2019-04-22T22:36:36.688Z,15.50
2019-04-22T22:39:04.032Z,15.50
2019-04-22T22:41:21.611Z,15.40
2019-04-22T22:43:52.771Z,15.30
2019-04-22T22:46:33.053Z,15.20
2019-04-22T22:49:20.450Z,15.20
2019-04-22T22:51:45.347Z,15.20
2019-04-22T22:54:12.198Z,15.20
2019-04-22T22:56:52.960Z,15.10
2019-04-22T22:59:08.280Z,15.10
2019-04-22T23:01:45.625Z,15.00
2019-04-22T23:04:16.195Z,14.90
2019-04-22T23:06:48.226Z,14.90
2019-04-22T23:09:13.484Z,14.90
2019-04-22T23:11:59.404Z,14.70
2019-04-22T23:14:14.490Z,14.60
2019-04-22T23:16:33.651Z,14.70
2019-04-22T23:19:04.508Z,14.90
2019-04-22T23:21:39.662Z,15.00
2019-04-22T23:24:23.406Z,14.80
2019-04-22T23:26:53.956Z,14.70
2019-04-22T23:29:25.390Z,14.70
2019-04-22T23:31:59.642Z,14.40
2019-04-22T23:34:24.970Z,14.30
2019-04-22T23:37:06.228Z,14.20
2019-04-22T23:39:47.756Z,14.20
2019-04-22T23:42:14.580Z,14.30
2019-04-22T23:44:41.884Z,14.20
2019-04-22T23:47:11.171Z,14.30
2019-04-22T23:49:42.062Z,14.10
2019-04-22T23:52:22.426Z,13.90
2019-04-22T23:54:58.919Z,13.90
2019-04-22T23:57:29.234Z,13.90
2019-04-22T23:59:56.400Z,13.70
